sensor_id;sensor_type;location;lat;lon;timestamp;temperature;humidity
1578;DHT22;57623;53.608;10.004;2023-04-15T00:02:25;8.60;99.90
1578;DHT22;57623;53.608;10.004;2023-04-15T00:04:55;8.50;99.90
1578;DHT22;57623;53.608;10.004;2023-04-15T00:07:23;8.50;99.90
1578;DHT22;57623;53.608;10.004;2023-04-15T00:09:50;8.50;99.90
1578;DHT22;57623;53.608;10.004;2023-04-15T00:12:20;8.50;99.90
1578;DHT22;57623;53.608;10.004;2023-04-15T00:14:48;8.50;99.90
1578;DHT22;57623;53.608;10.004;2023-04-15T00:17:16;8.50;99.90
1578;DHT22;57623;53.608;10.004;2023-04-15T00:19:45;8.50;99.90
1578;DHT22;57623;53.608;10.004;2023-04-15T00:22:14;8.50;99.90
1578;DHT22;57623;53.608;10.004;2023-04-15T00:24:42;8.50;99.90
1578;DHT22;57623;53.608;10.004;2023-04-15T00:27:10;8.50;99.90
1578;DHT22;57623;53.608;10.004;2023-04-15T00:29:38;8.50;99.90
1578;DHT22;57623;53.608;10.004;2023-04-15T00:32:06;8.50;99.90
1578;DHT22;57623;53.608;10.004;2023-04-15T00:34:34;8.50;99.90
1578;DHT22;57623;53.608;10.004;2023-04-15T00:37:02;8.40;99.90
1578;DHT22;57623;53.608;10.004;2023-04-15T00:39:32;8.50;99.90
1578;DHT22;57623;53.608;10.004;2023-04-15T00:42:00;8.40;99.90
1578;DHT22;57623;53.608;10.004;2023-04-15T00:44:28;8.40;99.90
1578;DHT22;57623;53.608;10.004;2023-04-15T00:46:56;8.40;99.90
1578;DHT22;57623;53.608;10.004;2023-04-15T00:49:25;8.40;99.90
1578;DHT22;57623;53.608;10.004;2023-04-15T00:51:54;8.40;99.90
1578;DHT22;57623;53.608;10.004;2023-04-15T00:54:22;8.40;99.90
1578;DHT22;57623;53.608;10.004;2023-04-15T00:56:52;8.40;99.90
1578;DHT22;57623;53.608;10.004;2023-04-15T00:59:20;8.40;99.90
1578;DHT22;57623;53.608;10.004;2023-04-15T01:01:48;8.40;99.90
1578;DHT22;57623;53.608;10.004;2023-04-15T01:04:17;8.40;99.90
1578;DHT22;57623;53.608;10.004;2023-04-15T01:06:45;8.40;99.90
1578;DHT22;57623;53.608;10.004;2023-04-15T01:09:13;8.40;99.90
1578;DHT22;57623;53.608;10.004;2023-04-15T01:11:42;8.40;99.90
1578;DHT22;57623;53.608;10.004;2023-04-15T01:14:12;8.40;99.90
1578;DHT22;57623;53.608;10.004;2023-04-15T01:16:40;8.40;99.90
1578;DHT22;57623;53.608;10.004;2023-04-15T01:19:09;8.40;99.90
1578;DHT22;57623;53.608;10.004;2023-04-15T01:21:38;8.40;99.90
1578;DHT22;57623;53.608;10.004;2023-04-15T01:24:09;8.40;99.90
1578;DHT22;57623;53.608;10.004;2023-04-15T01:26:39;8.40;99.90
1578;DHT22;57623;53.608;10.004;2023-04-15T01:29:09;8.40;99.90
1578;DHT22;57623;53.608;10.004;2023-04-15T01:31:37;8.40;99.90
1578;DHT22;57623;53.608;10.004;2023-04-15T01:34:05;8.40;99.90
1578;DHT22;57623;53.608;10.004;2023-04-15T01:36:33;8.40;99.90
1578;DHT22;57623;53.608;10.004;2023-04-15T01:39:01;8.40;99.90
1578;DHT22;57623;53.608;10.004;2023-04-15T01:41:29;8.40;99.90
1578;DHT22;57623;53.608;10.004;2023-04-15T01:43:58;8.40;99.90
1578;DHT22;57623;53.608;10.004;2023-04-15T01:46:27;8.40;99.90
1578;DHT22;57623;53.608;10.004;2023-04-15T01:48:55;8.40;99.90
1578;DHT22;57623;53.608;10.004;2023-04-15T01:51:23;8.40;99.90
1578;DHT22;57623;53.608;10.004;2023-04-15T01:53:51;8.30;99.90
1578;DHT22;57623;53.608;10.004;2023-04-15T01:56:19;8.30;99.90
1578;DHT22;57623;53.608;10.004;2023-04-15T01:58:47;8.40;99.90
1578;DHT22;57623;53.608;10.004;2023-04-15T02:01:16;8.40;99.90
1578;DHT22;57623;53.608;10.004;2023-04-15T02:03:45;8.40;99.90
1578;DHT22;57623;53.608;10.004;2023-04-15T02:06:14;8.40;99.90
1578;DHT22;57623;53.608;10.004;2023-04-15T02:08:42;8.40;99.90
1578;DHT22;57623;53.608;10.004;2023-04-15T02:11:10;8.30;99.90
1578;DHT22;57623;53.608;10.004;2023-04-15T02:13:38;8.30;99.90
1578;DHT22;57623;53.608;10.004;2023-04-15T02:16:16;8.30;99.90
1578;DHT22;57623;53.608;10.004;2023-04-15T02:18:44;8.30;99.90
1578;DHT22;57623;53.608;10.004;2023-04-15T02:21:13;8.30;99.90
1578;DHT22;57623;53.608;10.004;2023-04-15T02:23:41;8.30;99.90
1578;DHT22;57623;53.608;10.004;2023-04-15T02:26:09;8.30;99.90
1578;DHT22;57623;53.608;10.004;2023-04-15T02:28:37;8.30;99.90
1578;DHT22;57623;53.608;10.004;2023-04-15T02:31:05;8.30;99.90
1578;DHT22;57623;53.608;10.004;2023-04-15T02:33:36;8.30;99.90
1578;DHT22;57623;53.608;10.004;2023-04-15T02:36:04;8.30;99.90
1578;DHT22;57623;53.608;10.004;2023-04-15T02:38:33;8.30;99.90
1578;DHT22;57623;53.608;10.004;2023-04-15T02:41:01;8.30;99.90
1578;DHT22;57623;53.608;10.004;2023-04-15T02:43:29;8.30;99.90
1578;DHT22;57623;53.608;10.004;2023-04-15T02:45:57;8.30;99.90
1578;DHT22;57623;53.608;10.004;2023-04-15T02:48:25;8.30;99.90
1578;DHT22;57623;53.608;10.004;2023-04-15T02:51:10;8.30;99.90
1578;DHT22;57623;53.608;10.004;2023-04-15T02:53:38;8.40;99.90
1578;DHT22;57623;53.608;10.004;2023-04-15T02:56:07;8.30;99.90
1578;DHT22;57623;53.608;10.004;2023-04-15T02:58:35;8.30;99.90
1578;DHT22;57623;53.608;10.004;2023-04-15T03:01:03;8.40;99.90
1578;DHT22;57623;53.608;10.004;2023-04-15T03:03:31;8.40;99.90
1578;DHT22;57623;53.608;10.004;2023-04-15T03:06:00;8.40;99.90
1578;DHT22;57623;53.608;10.004;2023-04-15T03:08:28;8.40;99.90
1578;DHT22;57623;53.608;10.004;2023-04-15T03:10:57;8.40;99.90
1578;DHT22;57623;53.608;10.004;2023-04-15T03:13:26;8.40;99.90
1578;DHT22;57623;53.608;10.004;2023-04-15T03:15:54;8.40;99.90
1578;DHT22;57623;53.608;10.004;2023-04-15T03:18:22;8.40;99.90
1578;DHT22;57623;53.608;10.004;2023-04-15T03:20:50;8.40;99.90
1578;DHT22;57623;53.608;10.004;2023-04-15T03:23:20;8.40;99.90
1578;DHT22;57623;53.608;10.004;2023-04-15T03:25:47;8.40;99.90
1578;DHT22;57623;53.608;10.004;2023-04-15T03:28:15;8.40;99.90
1578;DHT22;57623;53.608;10.004;2023-04-15T03:30:43;8.40;99.90
1578;DHT22;57623;53.608;10.004;2023-04-15T03:33:11;8.40;99.90
1578;DHT22;57623;53.608;10.004;2023-04-15T03:35:39;8.40;99.90
1578;DHT22;57623;53.608;10.004;2023-04-15T03:38:07;8.40;99.90
1578;DHT22;57623;53.608;10.004;2023-04-15T03:40:37;8.40;99.90
1578;DHT22;57623;53.608;10.004;2023-04-15T03:43:06;8.50;99.90
1578;DHT22;57623;53.608;10.004;2023-04-15T03:45:34;8.50;99.90
1578;DHT22;57623;53.608;10.004;2023-04-15T03:48:02;8.50;99.90
1578;DHT22;57623;53.608;10.004;2023-04-15T03:50:43;8.40;99.90
1578;DHT22;57623;53.608;10.004;2023-04-15T03:53:11;8.40;99.90
1578;DHT22;57623;53.608;10.004;2023-04-15T03:55:41;8.40;99.90
1578;DHT22;57623;53.608;10.004;2023-04-15T03:58:09;8.40;99.90
1578;DHT22;57623;53.608;10.004;2023-04-15T04:00:38;8.40;99.90
1578;DHT22;57623;53.608;10.004;2023-04-15T04:03:07;8.40;99.90
1578;DHT22;57623;53.608;10.004;2023-04-15T04:05:35;8.40;99.90
1578;DHT22;57623;53.608;10.004;2023-04-15T04:08:05;8.40;99.90
1578;DHT22;57623;53.608;10.004;2023-04-15T04:10:33;8.40;99.90
1578;DHT22;57623;53.608;10.004;2023-04-15T04:13:02;8.40;99.90
1578;DHT22;57623;53.608;10.004;2023-04-15T04:15:30;8.40;99.90
1578;DHT22;57623;53.608;10.004;2023-04-15T04:17:58;8.40;99.90
1578;DHT22;57623;53.608;10.004;2023-04-15T04:20:26;8.40;99.90
1578;DHT22;57623;53.608;10.004;2023-04-15T04:22:54;8.50;99.90
1578;DHT22;57623;53.608;10.004;2023-04-15T04:25:22;8.50;99.90
1578;DHT22;57623;53.608;10.004;2023-04-15T04:27:50;8.50;99.90
1578;DHT22;57623;53.608;10.004;2023-04-15T04:30:19;8.50;99.90
1578;DHT22;57623;53.608;10.004;2023-04-15T04:32:49;8.50;99.90
1578;DHT22;57623;53.608;10.004;2023-04-15T04:35:17;8.50;99.90
1578;DHT22;57623;53.608;10.004;2023-04-15T04:37:45;8.50;99.90
1578;DHT22;57623;53.608;10.004;2023-04-15T04:40:13;8.50;99.90
1578;DHT22;57623;53.608;10.004;2023-04-15T04:42:41;8.50;99.90
1578;DHT22;57623;53.608;10.004;2023-04-15T04:45:09;8.50;99.90
1578;DHT22;57623;53.608;10.004;2023-04-15T04:47:38;8.50;99.90
1578;DHT22;57623;53.608;10.004;2023-04-15T04:50:07;8.50;99.90
1578;DHT22;57623;53.608;10.004;2023-04-15T04:52:35;8.50;99.90
1578;DHT22;57623;53.608;10.004;2023-04-15T04:55:04;8.50;99.90
1578;DHT22;57623;53.608;10.004;2023-04-15T04:57:32;8.50;99.90
1578;DHT22;57623;53.608;10.004;2023-04-15T05:00:01;8.50;99.90
1578;DHT22;57623;53.608;10.004;2023-04-15T05:02:30;8.60;99.90
1578;DHT22;57623;53.608;10.004;2023-04-15T05:05:00;8.60;99.90
1578;DHT22;57623;53.608;10.004;2023-04-15T05:07:28;8.60;99.90
1578;DHT22;57623;53.608;10.004;2023-04-15T05:09:56;8.60;99.90
1578;DHT22;57623;53.608;10.004;2023-04-15T05:12:24;8.60;99.90
1578;DHT22;57623;53.608;10.004;2023-04-15T05:14:52;8.60;99.90
1578;DHT22;57623;53.608;10.004;2023-04-15T05:17:20;8.60;99.90
1578;DHT22;57623;53.608;10.004;2023-04-15T05:19:48;8.60;99.90
1578;DHT22;57623;53.608;10.004;2023-04-15T05:22:17;8.60;99.90
1578;DHT22;57623;53.608;10.004;2023-04-15T05:24:45;8.70;99.90
1578;DHT22;57623;53.608;10.004;2023-04-15T05:27:13;8.70;99.90
1578;DHT22;57623;53.608;10.004;2023-04-15T05:29:41;8.70;99.90
1578;DHT22;57623;53.608;10.004;2023-04-15T05:32:09;8.70;99.90
1578;DHT22;57623;53.608;10.004;2023-04-15T05:34:37;8.70;99.90
1578;DHT22;57623;53.608;10.004;2023-04-15T05:37:05;8.70;99.90
1578;DHT22;57623;53.608;10.004;2023-04-15T05:39:34;8.70;99.90
1578;DHT22;57623;53.608;10.004;2023-04-15T05:42:02;8.70;99.90
1578;DHT22;57623;53.608;10.004;2023-04-15T05:44:31;8.70;99.90
1578;DHT22;57623;53.608;10.004;2023-04-15T05:46:59;8.70;99.90
1578;DHT22;57623;53.608;10.004;2023-04-15T05:49:29;8.70;99.90
1578;DHT22;57623;53.608;10.004;2023-04-15T05:51:59;8.70;99.90
1578;DHT22;57623;53.608;10.004;2023-04-15T05:54:27;8.70;99.90
1578;DHT22;57623;53.608;10.004;2023-04-15T05:56:56;8.70;99.90
1578;DHT22;57623;53.608;10.004;2023-04-15T05:59:24;8.70;99.90
1578;DHT22;57623;53.608;10.004;2023-04-15T06:01:52;8.70;99.90
1578;DHT22;57623;53.608;10.004;2023-04-15T06:04:20;8.70;99.90
1578;DHT22;57623;53.608;10.004;2023-04-15T06:06:49;8.70;99.90
1578;DHT22;57623;53.608;10.004;2023-04-15T06:09:16;8.80;99.90
1578;DHT22;57623;53.608;10.004;2023-04-15T06:11:44;8.80;99.90
1578;DHT22;57623;53.608;10.004;2023-04-15T06:14:14;8.80;99.90
1578;DHT22;57623;53.608;10.004;2023-04-15T06:16:42;8.80;99.90
1578;DHT22;57623;53.608;10.004;2023-04-15T06:19:10;8.80;99.90
1578;DHT22;57623;53.608;10.004;2023-04-15T06:21:40;8.80;99.90
1578;DHT22;57623;53.608;10.004;2023-04-15T06:24:08;8.80;99.90
1578;DHT22;57623;53.608;10.004;2023-04-15T06:26:36;8.80;99.90
1578;DHT22;57623;53.608;10.004;2023-04-15T06:29:04;8.80;99.90
1578;DHT22;57623;53.608;10.004;2023-04-15T06:31:33;8.80;99.90
1578;DHT22;57623;53.608;10.004;2023-04-15T06:34:01;8.80;99.90
1578;DHT22;57623;53.608;10.004;2023-04-15T06:36:29;8.80;99.90
1578;DHT22;57623;53.608;10.004;2023-04-15T06:38:58;8.80;99.90
1578;DHT22;57623;53.608;10.004;2023-04-15T06:41:27;8.80;99.90
1578;DHT22;57623;53.608;10.004;2023-04-15T06:43:55;8.80;99.90
1578;DHT22;57623;53.608;10.004;2023-04-15T06:46:23;8.80;99.90
1578;DHT22;57623;53.608;10.004;2023-04-15T06:48:53;8.80;99.90
1578;DHT22;57623;53.608;10.004;2023-04-15T06:51:21;8.80;99.90
1578;DHT22;57623;53.608;10.004;2023-04-15T06:53:52;8.80;99.90
1578;DHT22;57623;53.608;10.004;2023-04-15T06:56:20;8.90;99.90
1578;DHT22;57623;53.608;10.004;2023-04-15T06:58:48;8.90;99.90
1578;DHT22;57623;53.608;10.004;2023-04-15T07:01:16;8.90;99.90
1578;DHT22;57623;53.608;10.004;2023-04-15T07:03:44;8.90;99.90
1578;DHT22;57623;53.608;10.004;2023-04-15T07:06:14;8.90;99.90
1578;DHT22;57623;53.608;10.004;2023-04-15T07:08:42;8.90;99.90
1578;DHT22;57623;53.608;10.004;2023-04-15T07:11:10;9.00;99.90
1578;DHT22;57623;53.608;10.004;2023-04-15T07:13:38;9.00;99.90
1578;DHT22;57623;53.608;10.004;2023-04-15T07:16:06;9.00;99.90
1578;DHT22;57623;53.608;10.004;2023-04-15T07:18:34;9.00;99.90
1578;DHT22;57623;53.608;10.004;2023-04-15T07:21:02;9.00;99.90
1578;DHT22;57623;53.608;10.004;2023-04-15T07:23:32;9.00;99.90
1578;DHT22;57623;53.608;10.004;2023-04-15T07:26:00;9.10;99.90
1578;DHT22;57623;53.608;10.004;2023-04-15T07:28:28;9.10;99.90
1578;DHT22;57623;53.608;10.004;2023-04-15T07:30:58;9.10;99.90
1578;DHT22;57623;53.608;10.004;2023-04-15T07:33:27;9.10;99.90
1578;DHT22;57623;53.608;10.004;2023-04-15T07:35:55;9.10;99.90
1578;DHT22;57623;53.608;10.004;2023-04-15T07:38:22;9.10;99.90
1578;DHT22;57623;53.608;10.004;2023-04-15T07:40:52;9.20;99.90
1578;DHT22;57623;53.608;10.004;2023-04-15T07:43:20;9.20;99.90
1578;DHT22;57623;53.608;10.004;2023-04-15T07:45:48;9.20;99.90
1578;DHT22;57623;53.608;10.004;2023-04-15T07:48:16;9.20;99.90
1578;DHT22;57623;53.608;10.004;2023-04-15T07:50:44;9.20;99.90
1578;DHT22;57623;53.608;10.004;2023-04-15T07:53:12;9.20;99.90
1578;DHT22;57623;53.608;10.004;2023-04-15T07:55:40;9.20;99.90
1578;DHT22;57623;53.608;10.004;2023-04-15T07:58:09;9.30;99.90
1578;DHT22;57623;53.608;10.004;2023-04-15T08:00:37;9.30;99.90
1578;DHT22;57623;53.608;10.004;2023-04-15T08:03:05;9.30;99.90
1578;DHT22;57623;53.608;10.004;2023-04-15T08:05:34;9.30;99.90
1578;DHT22;57623;53.608;10.004;2023-04-15T08:08:02;9.30;99.90
1578;DHT22;57623;53.608;10.004;2023-04-15T08:10:30;9.30;99.90
1578;DHT22;57623;53.608;10.004;2023-04-15T08:12:58;9.40;99.90
1578;DHT22;57623;53.608;10.004;2023-04-15T08:15:28;9.40;99.90
1578;DHT22;57623;53.608;10.004;2023-04-15T08:17:57;9.40;99.90
1578;DHT22;57623;53.608;10.004;2023-04-15T08:20:29;9.40;99.90
1578;DHT22;57623;53.608;10.004;2023-04-15T08:22:59;9.40;99.90
1578;DHT22;57623;53.608;10.004;2023-04-15T08:25:27;9.40;99.90
1578;DHT22;57623;53.608;10.004;2023-04-15T08:27:56;9.40;99.90
1578;DHT22;57623;53.608;10.004;2023-04-15T08:30:23;9.40;99.90
1578;DHT22;57623;53.608;10.004;2023-04-15T08:32:53;9.40;99.90
1578;DHT22;57623;53.608;10.004;2023-04-15T08:35:21;9.50;99.90
1578;DHT22;57623;53.608;10.004;2023-04-15T08:37:49;9.50;99.90
1578;DHT22;57623;53.608;10.004;2023-04-15T08:40:17;9.50;99.90
1578;DHT22;57623;53.608;10.004;2023-04-15T08:42:48;9.60;99.90
1578;DHT22;57623;53.608;10.004;2023-04-15T08:45:18;9.60;99.90
1578;DHT22;57623;53.608;10.004;2023-04-15T08:47:48;9.60;99.90
1578;DHT22;57623;53.608;10.004;2023-04-15T08:50:21;9.60;99.90
1578;DHT22;57623;53.608;10.004;2023-04-15T08:52:53;9.70;99.90
1578;DHT22;57623;53.608;10.004;2023-04-15T08:55:22;9.70;99.90
1578;DHT22;57623;53.608;10.004;2023-04-15T08:57:50;9.70;99.90
1578;DHT22;57623;53.608;10.004;2023-04-15T09:00:18;9.80;99.90
1578;DHT22;57623;53.608;10.004;2023-04-15T09:02:46;9.80;99.90
1578;DHT22;57623;53.608;10.004;2023-04-15T09:05:14;9.80;99.90
1578;DHT22;57623;53.608;10.004;2023-04-15T09:07:44;9.90;99.90
1578;DHT22;57623;53.608;10.004;2023-04-15T09:10:12;9.90;99.90
1578;DHT22;57623;53.608;10.004;2023-04-15T09:12:40;9.90;99.90
1578;DHT22;57623;53.608;10.004;2023-04-15T09:15:10;10.00;99.90
1578;DHT22;57623;53.608;10.004;2023-04-15T09:17:41;10.00;99.90
1578;DHT22;57623;53.608;10.004;2023-04-15T09:20:11;10.00;99.90
1578;DHT22;57623;53.608;10.004;2023-04-15T09:22:39;10.00;99.90
1578;DHT22;57623;53.608;10.004;2023-04-15T09:25:27;10.00;99.90
1578;DHT22;57623;53.608;10.004;2023-04-15T09:27:59;10.10;99.90
1578;DHT22;57623;53.608;10.004;2023-04-15T09:30:28;10.10;99.90
1578;DHT22;57623;53.608;10.004;2023-04-15T09:32:57;10.20;99.90
1578;DHT22;57623;53.608;10.004;2023-04-15T09:35:26;10.20;99.90
1578;DHT22;57623;53.608;10.004;2023-04-15T09:38:02;10.30;99.90
1578;DHT22;57623;53.608;10.004;2023-04-15T09:40:33;10.40;99.90
1578;DHT22;57623;53.608;10.004;2023-04-15T09:43:02;10.50;99.90
1578;DHT22;57623;53.608;10.004;2023-04-15T09:45:31;10.50;99.90
1578;DHT22;57623;53.608;10.004;2023-04-15T09:48:17;10.60;99.90
1578;DHT22;57623;53.608;10.004;2023-04-15T09:50:47;10.70;99.90
1578;DHT22;57623;53.608;10.004;2023-04-15T09:53:16;10.80;99.90
1578;DHT22;57623;53.608;10.004;2023-04-15T09:55:49;10.90;99.90
1578;DHT22;57623;53.608;10.004;2023-04-15T09:58:17;11.00;99.90
1578;DHT22;57623;53.608;10.004;2023-04-15T10:00:46;11.00;99.90
1578;DHT22;57623;53.608;10.004;2023-04-15T10:03:18;11.10;99.90
1578;DHT22;57623;53.608;10.004;2023-04-15T10:05:49;11.20;99.90
1578;DHT22;57623;53.608;10.004;2023-04-15T10:08:18;11.20;99.90
1578;DHT22;57623;53.608;10.004;2023-04-15T10:10:48;11.30;99.90
1578;DHT22;57623;53.608;10.004;2023-04-15T10:13:18;11.40;99.90
1578;DHT22;57623;53.608;10.004;2023-04-15T10:15:50;11.50;99.90
1578;DHT22;57623;53.608;10.004;2023-04-15T10:18:19;11.60;99.90
1578;DHT22;57623;53.608;10.004;2023-04-15T10:20:48;11.60;99.90
1578;DHT22;57623;53.608;10.004;2023-04-15T10:23:17;11.70;99.90
1578;DHT22;57623;53.608;10.004;2023-04-15T10:25:47;11.80;99.90
1578;DHT22;57623;53.608;10.004;2023-04-15T10:28:16;11.80;99.90
1578;DHT22;57623;53.608;10.004;2023-04-15T10:30:44;11.90;99.90
1578;DHT22;57623;53.608;10.004;2023-04-15T10:33:13;12.10;99.90
1578;DHT22;57623;53.608;10.004;2023-04-15T10:35:43;12.30;99.90
1578;DHT22;57623;53.608;10.004;2023-04-15T10:38:31;12.40;99.90
1578;DHT22;57623;53.608;10.004;2023-04-15T10:41:13;12.70;99.90
1578;DHT22;57623;53.608;10.004;2023-04-15T10:43:48;12.90;99.90
1578;DHT22;57623;53.608;10.004;2023-04-15T10:46:18;13.00;99.90
1578;DHT22;57623;53.608;10.004;2023-04-15T10:48:48;13.10;99.90
1578;DHT22;57623;53.608;10.004;2023-04-15T10:51:27;13.10;99.90
1578;DHT22;57623;53.608;10.004;2023-04-15T10:53:56;13.20;99.90
1578;DHT22;57623;53.608;10.004;2023-04-15T10:56:28;13.20;99.90
1578;DHT22;57623;53.608;10.004;2023-04-15T10:58:58;13.40;99.90
1578;DHT22;57623;53.608;10.004;2023-04-15T11:01:52;13.60;99.90
1578;DHT22;57623;53.608;10.004;2023-04-15T11:04:53;13.80;99.90
1578;DHT22;57623;53.608;10.004;2023-04-15T11:07:39;14.10;99.90
1578;DHT22;57623;53.608;10.004;2023-04-15T11:13:28;14.50;99.90
1578;DHT22;57623;53.608;10.004;2023-04-15T11:15:59;14.50;99.90
1578;DHT22;57623;53.608;10.004;2023-04-15T11:18:30;14.50;99.90
1578;DHT22;57623;53.608;10.004;2023-04-15T11:21:00;14.50;99.90
1578;DHT22;57623;53.608;10.004;2023-04-15T11:23:31;14.40;99.90
1578;DHT22;57623;53.608;10.004;2023-04-15T11:26:00;14.40;99.90
1578;DHT22;57623;53.608;10.004;2023-04-15T11:28:33;14.30;99.90
1578;DHT22;57623;53.608;10.004;2023-04-15T11:31:08;14.20;99.90
1578;DHT22;57623;53.608;10.004;2023-04-15T11:33:43;14.10;99.90
1578;DHT22;57623;53.608;10.004;2023-04-15T11:36:11;14.10;99.90
1578;DHT22;57623;53.608;10.004;2023-04-15T11:38:42;14.10;99.90
1578;DHT22;57623;53.608;10.004;2023-04-15T11:41:10;14.00;99.90
1578;DHT22;57623;53.608;10.004;2023-04-15T11:43:40;14.00;99.90
1578;DHT22;57623;53.608;10.004;2023-04-15T11:46:08;14.00;99.90
1578;DHT22;57623;53.608;10.004;2023-04-15T11:48:40;14.00;99.90
1578;DHT22;57623;53.608;10.004;2023-04-15T11:51:08;14.00;99.90
1578;DHT22;57623;53.608;10.004;2023-04-15T11:53:38;14.00;99.90
1578;DHT22;57623;53.608;10.004;2023-04-15T11:56:07;14.10;99.90
1578;DHT22;57623;53.608;10.004;2023-04-15T11:58:36;14.10;99.90
1578;DHT22;57623;53.608;10.004;2023-04-15T12:01:06;14.10;99.90
1578;DHT22;57623;53.608;10.004;2023-04-15T12:03:38;14.10;99.90
1578;DHT22;57623;53.608;10.004;2023-04-15T12:06:09;14.20;99.90
1578;DHT22;57623;53.608;10.004;2023-04-15T12:08:49;14.20;99.90
1578;DHT22;57623;53.608;10.004;2023-04-15T12:11:19;14.10;99.90
1578;DHT22;57623;53.608;10.004;2023-04-15T12:13:48;14.00;99.90
1578;DHT22;57623;53.608;10.004;2023-04-15T12:16:18;13.90;99.90
1578;DHT22;57623;53.608;10.004;2023-04-15T12:18:47;13.90;99.90
1578;DHT22;57623;53.608;10.004;2023-04-15T12:21:18;13.90;99.90
1578;DHT22;57623;53.608;10.004;2023-04-15T12:23:50;13.80;99.90
1578;DHT22;57623;53.608;10.004;2023-04-15T12:26:25;13.90;99.90
1578;DHT22;57623;53.608;10.004;2023-04-15T12:28:54;13.90;99.90
1578;DHT22;57623;53.608;10.004;2023-04-15T12:31:23;13.90;99.90
1578;DHT22;57623;53.608;10.004;2023-04-15T12:33:54;13.80;99.90
1578;DHT22;57623;53.608;10.004;2023-04-15T12:36:22;13.80;99.90
1578;DHT22;57623;53.608;10.004;2023-04-15T12:38:50;13.80;99.90
1578;DHT22;57623;53.608;10.004;2023-04-15T12:41:19;13.80;99.90
1578;DHT22;57623;53.608;10.004;2023-04-15T12:43:47;13.70;99.90
1578;DHT22;57623;53.608;10.004;2023-04-15T12:46:15;13.70;99.90
1578;DHT22;57623;53.608;10.004;2023-04-15T12:48:44;13.70;99.90
1578;DHT22;57623;53.608;10.004;2023-04-15T12:51:13;13.70;99.90
1578;DHT22;57623;53.608;10.004;2023-04-15T12:53:41;13.70;99.90
1578;DHT22;57623;53.608;10.004;2023-04-15T12:56:09;13.70;99.90
1578;DHT22;57623;53.608;10.004;2023-04-15T12:58:37;13.80;99.90
1578;DHT22;57623;53.608;10.004;2023-04-15T13:01:05;13.80;99.90
1578;DHT22;57623;53.608;10.004;2023-04-15T13:03:33;13.90;99.90
1578;DHT22;57623;53.608;10.004;2023-04-15T13:06:02;14.00;99.90
1578;DHT22;57623;53.608;10.004;2023-04-15T13:08:31;14.00;99.90
1578;DHT22;57623;53.608;10.004;2023-04-15T13:11:00;14.10;99.90
1578;DHT22;57623;53.608;10.004;2023-04-15T13:13:28;14.20;99.90
1578;DHT22;57623;53.608;10.004;2023-04-15T13:15:57;14.30;99.90
1578;DHT22;57623;53.608;10.004;2023-04-15T13:18:25;14.30;99.90
1578;DHT22;57623;53.608;10.004;2023-04-15T13:20:53;14.30;99.90
1578;DHT22;57623;53.608;10.004;2023-04-15T13:23:23;14.40;99.90
1578;DHT22;57623;53.608;10.004;2023-04-15T13:25:51;14.50;99.90
1578;DHT22;57623;53.608;10.004;2023-04-15T13:28:19;14.50;99.90
1578;DHT22;57623;53.608;10.004;2023-04-15T13:30:47;14.60;99.90
1578;DHT22;57623;53.608;10.004;2023-04-15T13:33:16;14.50;99.90
1578;DHT22;57623;53.608;10.004;2023-04-15T13:35:44;14.60;99.90
1578;DHT22;57623;53.608;10.004;2023-04-15T13:38:12;14.60;99.90
1578;DHT22;57623;53.608;10.004;2023-04-15T13:40:41;14.60;99.90
1578;DHT22;57623;53.608;10.004;2023-04-15T13:43:09;14.60;99.90
1578;DHT22;57623;53.608;10.004;2023-04-15T13:45:37;14.80;99.90
1578;DHT22;57623;53.608;10.004;2023-04-15T13:48:06;15.10;99.90
1578;DHT22;57623;53.608;10.004;2023-04-15T13:50:34;15.50;99.90
1578;DHT22;57623;53.608;10.004;2023-04-15T13:53:02;15.90;99.90
1578;DHT22;57623;53.608;10.004;2023-04-15T13:55:30;16.90;99.90
1578;DHT22;57623;53.608;10.004;2023-04-15T13:58:02;18.30;99.90
1578;DHT22;57623;53.608;10.004;2023-04-15T14:00:30;19.70;99.90
1578;DHT22;57623;53.608;10.004;2023-04-15T14:02:57;20.20;99.90
1578;DHT22;57623;53.608;10.004;2023-04-15T14:05:26;20.80;99.90
1578;DHT22;57623;53.608;10.004;2023-04-15T14:07:54;20.30;99.90
1578;DHT22;57623;53.608;10.004;2023-04-15T14:10:22;19.60;99.90
1578;DHT22;57623;53.608;10.004;2023-04-15T14:12:50;19.20;99.90
1578;DHT22;57623;53.608;10.004;2023-04-15T14:15:20;19.70;99.90
1578;DHT22;57623;53.608;10.004;2023-04-15T14:17:48;20.40;99.90
1578;DHT22;57623;53.608;10.004;2023-04-15T14:20:16;20.90;99.90
1578;DHT22;57623;53.608;10.004;2023-04-15T14:22:44;20.60;99.90
1578;DHT22;57623;53.608;10.004;2023-04-15T14:25:12;20.00;99.90
1578;DHT22;57623;53.608;10.004;2023-04-15T14:27:56;19.30;99.90
1578;DHT22;57623;53.608;10.004;2023-04-15T14:30:25;18.70;99.90
1578;DHT22;57623;53.608;10.004;2023-04-15T14:32:53;18.50;99.90
1578;DHT22;57623;53.608;10.004;2023-04-15T14:35:21;18.40;99.90
1578;DHT22;57623;53.608;10.004;2023-04-15T14:37:52;18.10;99.90
1578;DHT22;57623;53.608;10.004;2023-04-15T14:40:20;17.70;99.90
1578;DHT22;57623;53.608;10.004;2023-04-15T14:42:48;17.40;99.90
1578;DHT22;57623;53.608;10.004;2023-04-15T14:45:16;17.20;99.90
1578;DHT22;57623;53.608;10.004;2023-04-15T14:47:46;17.00;99.90
1578;DHT22;57623;53.608;10.004;2023-04-15T14:50:14;16.90;99.90
1578;DHT22;57623;53.608;10.004;2023-04-15T14:52:42;16.60;99.90
1578;DHT22;57623;53.608;10.004;2023-04-15T14:55:11;16.50;99.90
1578;DHT22;57623;53.608;10.004;2023-04-15T14:57:40;16.40;99.90
1578;DHT22;57623;53.608;10.004;2023-04-15T15:00:10;16.30;99.90
1578;DHT22;57623;53.608;10.004;2023-04-15T15:02:42;16.10;99.90
1578;DHT22;57623;53.608;10.004;2023-04-15T15:05:11;16.00;99.90
1578;DHT22;57623;53.608;10.004;2023-04-15T15:07:39;15.90;99.90
1578;DHT22;57623;53.608;10.004;2023-04-15T15:10:08;15.80;99.90
1578;DHT22;57623;53.608;10.004;2023-04-15T15:12:36;15.80;99.90
1578;DHT22;57623;53.608;10.004;2023-04-15T15:15:04;15.60;99.90
1578;DHT22;57623;53.608;10.004;2023-04-15T15:17:41;15.40;99.90
1578;DHT22;57623;53.608;10.004;2023-04-15T15:20:11;15.30;99.90
1578;DHT22;57623;53.608;10.004;2023-04-15T15:22:39;15.30;99.90
1578;DHT22;57623;53.608;10.004;2023-04-15T15:25:07;15.30;99.90
1578;DHT22;57623;53.608;10.004;2023-04-15T15:27:35;15.20;99.90
1578;DHT22;57623;53.608;10.004;2023-04-15T15:30:05;15.10;99.90
1578;DHT22;57623;53.608;10.004;2023-04-15T15:32:33;15.00;99.90
1578;DHT22;57623;53.608;10.004;2023-04-15T15:35:01;15.00;99.90
1578;DHT22;57623;53.608;10.004;2023-04-15T15:37:30;15.00;99.90
1578;DHT22;57623;53.608;10.004;2023-04-15T15:39:58;14.90;99.90
1578;DHT22;57623;53.608;10.004;2023-04-15T15:42:30;14.90;99.90
1578;DHT22;57623;53.608;10.004;2023-04-15T15:44:59;14.90;99.90
1578;DHT22;57623;53.608;10.004;2023-04-15T15:47:27;14.80;99.90
1578;DHT22;57623;53.608;10.004;2023-04-15T15:49:56;14.90;99.90
1578;DHT22;57623;53.608;10.004;2023-04-15T15:52:23;14.90;99.90
1578;DHT22;57623;53.608;10.004;2023-04-15T15:54:53;14.80;99.90
1578;DHT22;57623;53.608;10.004;2023-04-15T15:57:22;14.70;99.90